Aérodrome :
LOGIN :

S'inscrire | Disclaimer

   EN    FR    IT 

 










Légende :    VFR   VFR Marginal   IFR   IFR Intensif   IFR Très Intensif
Visi : 
Plafond : 
>= 8 km
>= 3000ft
5 à 8 km
1000 à 3000 ft
1500m à 5 km
500 à 1000 ft
800 à 1500m
200 à 500 ft
< 800m
< 200 ft
Symboles :   Orages  Brouillard  Fortes neiges  Fortes précipitations  Vent > 20 kt
SIGMETs :   Divers  Orages  Givrage  Turbulence  Onde Orograph.  Cendres Volcan.






- Altitude de l'aérodrome : 277 ft
- Code IATA : JER


EGJJ - Jersey

DERNIER METAR :
  • 111950Z 28019G33KT 9999 SHRA FEW023CB BKN030 09/05 Q1007

METARs EXPIRÉS :
  • 111920Z 27017KT 9999 -SHRA FEW024 09/05 Q1007
  • 111850Z 28017KT 9999 SHRA SCT022CB BKN035 10/05 Q1007
  • 111820Z 27021KT 9999 VCSH FEW022CB BKN032 09/05 Q1007
  • 111750Z 28019G29KT 9999 VCSH FEW020CB SCT031 10/05 Q1007
  • 111720Z 29019KT 9999 VCSH FEW021CB 09/05 Q1007

TAF TAF EGJJ
Valide du 11 à 18h jusqu'au 12 à 03h UTC


111656Z 1118/1203 29016KT 9999 FEW018CB SCT028
TEMPO 1118/1203 30021G33KT 9000 SHRA
PROB30
TEMPO 1118/1203 4000 +SHRAGS BKN014CB
ATIS : +44 1534 498 073



MET'MAP, la Météo Aéronautique d'un coup d'oeil ! - Copyright ORBIFLY Décembre 2007 - Disclaimer

ORBIFLY MET'MAP TEAM :

Programmation & Développement : Alexandra Zaïnal
Conception & Développement : Baudouin d'Aumeries
Co-Programmation & Développement : Marc-Olivier Méhu
Soutien technique & logistique : Manuel Goepfert

Contact : metmap@orbifly.com




SOURCES & CREDITS :

   NOAA